Time;durP1;ratioP1;P1;durP2;ratioP2;P2;SDS_P1;SDS_P2;PMS_P1;PMS_P2;Temp;Humidity;BMP_temperature;BMP_pressure;BME280_temperature;BME280_humidity;BME280_pressure;Samples;Min_cycle;Max_cycle;Signal;HPM_P1;HPM_P2
2021/04/13 00:01:13;;;;;;;4.23;2.70;;;4.80;98.40;;;;;;5033737;28;20438;-69
2021/04/13 00:03:44;;;;;;;2.43;2.23;;;4.80;98.40;;;;;;5050528;28;20511;-70
2021/04/13 00:06:23;;;;;;;3.13;2.30;;;4.70;98.30;;;;;;5033730;28;20470;-69
2021/04/13 00:08:51;;;;;;;2.80;2.60;;;4.80;98.40;;;;;;5017037;28;20450;-69
2021/04/13 00:11:18;;;;;;;2.37;1.93;;;4.70;98.50;;;;;;5030231;28;20450;-69
2021/04/13 00:13:44;;;;;;;3.50;2.70;;;4.60;98.50;;;;;;5033676;28;20533;-70
2021/04/13 00:16:12;;;;;;;3.37;2.47;;;4.60;98.70;;;;;;5015848;28;20565;-69
2021/04/13 00:18:40;;;;;;;4.03;2.70;;;4.60;98.80;;;;;;5033060;28;20541;-70
2021/04/13 00:21:15;;;;;;;3.37;2.33;;;4.60;98.70;;;;;;5038979;28;20465;-71
2021/04/13 00:23:42;;;;;;;6.47;2.93;;;4.60;98.60;;;;;;5042228;28;20532;-69
2021/04/13 00:26:10;;;;;;;2.57;2.20;;;4.60;98.70;;;;;;5050029;28;20458;-70
2021/04/13 00:28:43;;;;;;;3.80;2.30;;;4.60;98.80;;;;;;5049796;28;20447;-71
2021/04/13 00:31:17;;;;;;;3.27;2.43;;;4.70;98.80;;;;;;5033069;28;20459;-70
2021/04/13 00:33:43;;;;;;;5.10;3.00;;;4.60;98.60;;;;;;5034502;28;20470;-68
2021/04/13 00:36:15;;;;;;;4.60;3.73;;;4.60;98.70;;;;;;5033135;28;20557;-70
2021/04/13 00:38:47;;;;;;;4.70;3.20;;;4.70;98.70;;;;;;5049601;28;21111;-70
2021/04/13 00:41:33;;;;;;;4.40;3.10;;;4.60;98.60;;;;;;5032550;28;20870;-69
2021/04/13 00:44:06;;;;;;;4.50;3.03;;;4.60;98.80;;;;;;5033109;28;20453;-70
2021/04/13 00:46:37;;;;;;;4.63;3.37;;;4.60;98.80;;;;;;5032377;28;20451;-70
2021/04/13 00:49:04;;;;;;;4.07;3.20;;;4.50;98.70;;;;;;5048190;28;20466;-70
2021/04/13 00:51:34;;;;;;;5.33;3.13;;;4.50;98.70;;;;;;5020188;28;20450;-70
2021/04/13 00:54:04;;;;;;;3.73;3.37;;;4.50;98.90;;;;;;5038806;28;20451;-68
2021/04/13 00:56:31;;;;;;;3.83;3.10;;;4.50;98.70;;;;;;5050602;28;20469;-69
2021/04/13 00:59:07;;;;;;;3.67;3.07;;;4.50;98.70;;;;;;5048137;28;20451;-70
2021/04/13 01:01:39;;;;;;;4.63;2.90;;;4.50;98.80;;;;;;5043328;28;20450;-70
2021/04/13 01:04:17;;;;;;;5.87;3.40;;;4.50;98.60;;;;;;5016455;28;20934;-70
2021/04/13 01:06:43;;;;;;;5.37;3.70;;;4.40;98.70;;;;;;5032375;28;20499;-69
2021/04/13 01:09:24;;;;;;;5.33;3.70;;;4.40;98.70;;;;;;5031837;28;20450;-69
2021/04/13 01:12:06;;;;;;;5.17;3.97;;;4.40;98.60;;;;;;5031058;28;20458;-69
2021/04/13 01:14:33;;;;;;;3.50;2.93;;;4.40;98.70;;;;;;5037165;28;20454;-69
2021/04/13 01:17:05;;;;;;;7.20;3.90;;;4.40;98.50;;;;;;5028594;28;20467;-69
2021/04/13 01:20:10;;;;;;;5.70;3.43;;;4.40;98.60;;;;;;5030959;28;20516;-69
2021/04/13 01:22:53;;;;;;;5.50;3.33;;;4.30;98.60;;;;;;5058754;28;20878;-69
2021/04/13 01:25:22;;;;;;;7.10;3.47;;;4.30;98.60;;;;;;5041340;28;20458;-70
2021/04/13 01:27:52;;;;;;;9.20;4.80;;;4.30;98.60;;;;;;5048656;28;20538;-69
2021/04/13 01:30:20;;;;;;;8.20;4.50;;;4.30;98.60;;;;;;5047588;28;20454;-69
2021/04/13 01:32:46;;;;;;;6.40;3.90;;;4.20;98.50;;;;;;5025433;28;20458;-69
2021/04/13 01:35:15;;;;;;;7.97;4.47;;;4.20;98.50;;;;;;5022921;28;20546;-69
2021/04/13 01:41:31;;;;;;;8.10;5.10;;;4.20;98.60;;;;;;5044948;28;20451;-69
2021/04/13 01:43:22;;;;;;;6.77;3.90;;;4.30;98.70;;;;;;5029515;28;20465;-69
2021/04/13 01:45:48;;;;;;;8.60;4.97;;;4.30;98.60;;;;;;5032303;28;20450;-70
2021/04/13 01:48:15;;;;;;;7.87;4.60;;;4.30;98.60;;;;;;5014780;28;20545;-70
2021/04/13 01:50:43;;;;;;;7.30;4.47;;;4.30;98.50;;;;;;5007876;28;20882;-69
2021/04/13 01:53:18;;;;;;;5.13;3.70;;;4.30;98.50;;;;;;5032917;28;20538;-69
2021/04/13 01:55:59;;;;;;;11.23;5.33;;;4.30;98.50;;;;;;5028548;28;20454;-69
2021/04/13 01:58:48;;;;;;;6.30;4.30;;;4.20;98.40;;;;;;5031090;28;20521;-70
2021/04/13 02:01:21;;;;;;;7.10;5.20;;;4.20;98.50;;;;;;5031397;28;20465;-70
2021/04/13 02:04:08;;;;;;;6.07;4.50;;;4.30;98.50;;;;;;5048129;28;20450;-69
2021/04/13 02:06:44;;;;;;;11.60;5.70;;;4.30;98.40;;;;;;5047517;28;20442;-69
2021/04/13 02:09:44;;;;;;;8.07;4.97;;;4.10;98.30;;;;;;5022504;28;20867;-70
2021/04/13 02:12:21;;;;;;;9.80;5.23;;;4.10;98.50;;;;;;5031168;28;20891;-70
2021/04/13 02:14:55;;;;;;;9.50;5.70;;;4.10;98.40;;;;;;5047486;28;20473;-69
2021/04/13 02:17:27;;;;;;;8.00;5.03;;;4.10;98.40;;;;;;5030709;28;20480;-69
2021/04/13 02:19:54;;;;;;;11.33;4.90;;;4.10;98.40;;;;;;5043818;28;20497;-69
2021/04/13 02:22:23;;;;;;;11.03;5.30;;;4.20;98.40;;;;;;5016687;28;20461;-70
2021/04/13 02:24:53;;;;;;;8.30;5.17;;;4.00;98.10;;;;;;5050822;28;20471;-70
2021/04/13 02:27:24;;;;;;;8.20;4.53;;;3.90;98.30;;;;;;5031068;28;20508;-69
2021/04/13 02:29:53;;;;;;;7.67;4.90;;;3.90;98.40;;;;;;5036053;28;20478;-69
2021/04/13 02:32:28;;;;;;;7.57;5.20;;;3.90;98.40;;;;;;5028666;28;20449;-70
2021/04/13 02:34:58;;;;;;;12.53;6.50;;;3.80;98.60;;;;;;5036594;28;20473;-69
2021/04/13 02:37:40;;;;;;;12.70;5.80;;;3.80;98.60;;;;;;5029051;28;20473;-69
2021/04/13 02:40:46;;;;;;;9.10;5.50;;;3.80;98.50;;;;;;5010801;28;20455;-69
2021/04/13 02:43:18;;;;;;;11.07;4.87;;;3.80;98.60;;;;;;5015975;28;20541;-70
2021/04/13 02:45:50;;;;;;;12.13;5.67;;;3.90;98.70;;;;;;5029129;28;20558;-70
2021/04/13 02:48:26;;;;;;;7.67;4.80;;;3.90;98.60;;;;;;5028023;28;20439;-71
2021/04/13 02:50:56;;;;;;;11.00;6.57;;;4.00;98.60;;;;;;5021898;28;20451;-69
2021/04/13 02:53:29;;;;;;;7.63;4.83;;;3.90;98.40;;;;;;5026420;28;20454;-69
2021/04/13 02:55:57;;;;;;;5.93;4.43;;;3.80;98.60;;;;;;5037227;28;20453;-69
2021/04/13 02:58:28;;;;;;;7.37;5.40;;;3.80;98.60;;;;;;5028347;28;20434;-68
2021/04/13 03:00:58;;;;;;;11.77;7.30;;;3.90;98.70;;;;;;5029458;28;20468;-70
2021/04/13 03:03:24;;;;;;;9.73;5.87;;;3.80;98.60;;;;;;5040737;28;20530;-69
2021/04/13 03:05:51;;;;;;;7.13;5.20;;;3.80;98.80;;;;;;5046816;28;20450;-69
2021/04/13 03:08:19;;;;;;;10.60;6.37;;;3.80;98.80;;;;;;5045095;28;20212;-69
2021/04/13 03:10:49;;;;;;;9.27;5.00;;;3.80;98.90;;;;;;5028739;28;20891;-69
2021/04/13 03:13:21;;;;;;;15.87;6.10;;;3.70;98.80;;;;;;5045401;28;20458;-69
2021/04/13 03:15:53;;;;;;;12.90;6.30;;;3.60;99.00;;;;;;5046052;28;20465;-70
2021/04/13 03:18:29;;;;;;;10.47;6.63;;;3.60;99.10;;;;;;5018899;28;20466;-69
2021/04/13 03:21:05;;;;;;;8.70;5.70;;;3.60;99.00;;;;;;5025216;28;20443;-69
2021/04/13 03:23:32;;;;;;;11.20;7.00;;;3.60;98.90;;;;;;5032889;28;20450;-70
2021/04/13 03:26:04;;;;;;;11.53;6.00;;;3.70;99.00;;;;;;5023714;28;20442;-69
2021/04/13 03:28:53;;;;;;;10.30;6.80;;;3.70;99.00;;;;;;5032171;28;20450;-68
2021/04/13 03:31:20;;;;;;;15.57;7.67;;;3.70;99.00;;;;;;5042287;28;20452;-69
2021/04/13 03:33:48;;;;;;;11.70;6.40;;;3.70;99.00;;;;;;5017550;28;20532;-69
2021/04/13 03:36:23;;;;;;;10.30;6.43;;;3.70;99.00;;;;;;5027616;28;20474;-69
2021/04/13 03:38:58;;;;;;;11.27;6.97;;;3.60;98.90;;;;;;5048044;28;20949;-68
2021/04/13 03:41:25;;;;;;;10.77;7.07;;;3.60;98.90;;;;;;5042781;28;20434;-70
2021/04/13 03:43:57;;;;;;;9.07;5.27;;;3.60;98.80;;;;;;5044628;28;20447;-69
2021/04/13 03:46:25;;;;;;;10.00;7.07;;;3.70;98.70;;;;;;5044936;28;20430;-68
2021/04/13 03:48:52;;;;;;;11.57;5.37;;;3.70;98.60;;;;;;5043197;28;20451;-68
2021/04/13 03:51:31;;;;;;;10.57;6.00;;;3.60;98.80;;;;;;5029781;28;20465;-69
2021/04/13 03:53:57;;;;;;;10.73;6.93;;;3.60;98.80;;;;;;5032193;28;20499;-70
2021/04/13 03:56:25;;;;;;;9.53;5.77;;;3.60;98.90;;;;;;5030665;28;20466;-70
2021/04/13 03:58:58;;;;;;;10.90;6.00;;;3.60;98.80;;;;;;5032234;28;20455;-68
2021/04/13 04:01:29;;;;;;;10.07;5.53;;;3.60;98.80;;;;;;5030619;28;20455;-69
2021/04/13 04:03:59;;;;;;;15.03;7.30;;;3.60;98.80;;;;;;5015067;28;20458;-71
2021/04/13 04:06:47;;;;;;;13.40;7.37;;;3.60;98.90;;;;;;5048693;28;20814;-68
2021/04/13 04:09:17;;;;;;;11.90;6.60;;;3.70;98.90;;;;;;5029834;28;20512;-70
2021/04/13 04:11:43;;;;;;;11.83;6.77;;;3.70;99.20;;;;;;5036772;28;20455;-69
2021/04/13 04:14:19;;;;;;;9.93;6.93;;;3.50;98.90;;;;;;5016495;28;20454;-70
2021/04/13 04:16:44;;;;;;;15.67;8.40;;;3.40;98.90;;;;;;5049378;28;20462;-69
2021/04/13 04:19:12;;;;;;;12.50;7.07;;;3.40;99.00;;;;;;5032464;28;20469;-70
2021/04/13 04:21:45;;;;;;;9.07;6.50;;;3.40;99.00;;;;;;5033862;28;20223;-70
2021/04/13 04:24:16;;;;;;;12.23;7.83;;;3.40;99.10;;;;;;5012527;28;20468;-69
2021/04/13 04:27:05;;;;;;;11.93;6.40;;;3.40;99.00;;;;;;5026994;28;20537;-68
2021/04/13 04:29:34;;;;;;;15.60;6.90;;;3.50;99.00;;;;;;5051034;28;20455;-69
2021/04/13 04:32:20;;;;;;;12.40;7.37;;;3.50;98.90;;;;;;5049321;28;20470;-69
2021/04/13 04:34:45;;;;;;;12.73;6.10;;;3.60;99.00;;;;;;5032746;28;20459;-68
2021/04/13 04:37:31;;;;;;;12.57;6.50;;;3.60;98.80;;;;;;5049153;28;20875;-69
2021/04/13 04:40:17;;;;;;;11.03;6.67;;;3.70;98.80;;;;;;5036811;28;20240;-69
2021/04/13 04:42:48;;;;;;;13.20;7.63;;;3.70;98.60;;;;;;5049883;28;20454;-68
2021/04/13 04:45:15;;;;;;;13.43;7.40;;;3.70;98.70;;;;;;5048711;28;20822;-68
2021/04/13 04:47:43;;;;;;;12.40;7.67;;;3.70;98.70;;;;;;5050699;28;20454;-70
2021/04/13 04:50:13;;;;;;;14.07;7.40;;;3.70;98.60;;;;;;5012984;28;20459;-68
2021/04/13 04:52:39;;;;;;;13.67;6.53;;;3.70;98.60;;;;;;5046994;28;20505;-69
2021/04/13 04:55:06;;;;;;;12.47;7.67;;;3.70;98.50;;;;;;5033063;28;20463;-70
2021/04/13 04:57:31;;;;;;;11.77;7.80;;;3.70;98.50;;;;;;5049696;28;20232;-69
2021/04/13 04:59:57;;;;;;;11.30;8.00;;;3.70;98.50;;;;;;5032706;28;20863;-70
2021/04/13 05:02:23;;;;;;;12.53;8.00;;;3.70;98.40;;;;;;5048140;28;20250;-69
2021/04/13 05:04:49;;;;;;;13.60;8.20;;;3.70;98.40;;;;;;5032856;28;20227;-69
2021/04/13 05:07:15;;;;;;;13.10;7.73;;;3.80;98.50;;;;;;5032089;28;20231;-69
2021/04/13 05:09:40;;;;;;;13.40;8.37;;;3.70;98.40;;;;;;5049070;28;20227;-68
2021/04/13 05:12:07;;;;;;;11.10;7.07;;;3.70;98.40;;;;;;5015881;28;20303;-70
2021/04/13 05:14:33;;;;;;;16.60;7.30;;;3.70;98.40;;;;;;5031617;28;20215;-68
2021/04/13 05:16:59;;;;;;;13.33;6.93;;;3.50;98.80;;;;;;5058554;28;20474;-69
2021/04/13 05:19:25;;;;;;;11.33;8.00;;;3.40;99.00;;;;;;5047794;28;20455;-68
2021/04/13 05:21:51;;;;;;;15.00;7.27;;;3.30;99.30;;;;;;5033025;28;20454;-69
2021/04/13 05:24:16;;;;;;;18.70;9.47;;;3.40;99.50;;;;;;5038311;28;20220;-69
2021/04/13 05:26:42;;;;;;;13.37;8.63;;;3.30;99.50;;;;;;5033548;28;20224;-69
2021/04/13 05:29:08;;;;;;;15.47;9.33;;;3.20;99.80;;;;;;5032623;28;20352;-69
2021/04/13 05:31:35;;;;;;;15.37;9.07;;;3.30;99.80;;;;;;5032624;28;20917;-70
2021/04/13 05:34:01;;;;;;;16.50;8.63;;;3.30;99.90;;;;;;5016082;28;20467;-69
2021/04/13 05:36:27;;;;;;;15.20;7.87;;;3.30;99.90;;;;;;5013098;28;20459;-69
2021/04/13 05:38:53;;;;;;;12.10;7.30;;;3.30;99.90;;;;;;5029376;28;20278;-69
2021/04/13 05:41:19;;;;;;;14.47;7.40;;;3.40;99.90;;;;;;5029775;28;20534;-69
2021/04/13 05:43:45;;;;;;;11.03;6.80;;;3.40;99.90;;;;;;5032132;28;20459;-69
2021/04/13 05:46:26;;;;;;;15.53;7.57;;;3.40;99.90;;;;;;5049043;28;20981;-68
2021/04/13 05:48:52;;;;;;;11.67;7.27;;;3.40;99.90;;;;;;5040192;28;20992;-69
2021/04/13 05:51:19;;;;;;;13.87;7.67;;;3.50;99.90;;;;;;5019978;28;20563;-70
2021/04/13 05:53:45;;;;;;;14.03;7.20;;;3.50;99.90;;;;;;5032675;28;20593;-70
2021/04/13 05:56:24;;;;;;;12.77;6.47;;;3.50;99.90;;;;;;5031840;28;20454;-69
2021/04/13 05:58:51;;;;;;;14.57;7.90;;;3.50;99.90;;;;;;5032992;28;20450;-69
2021/04/13 06:01:20;;;;;;;13.53;6.27;;;3.50;99.90;;;;;;5016111;28;21011;-70
2021/04/13 06:03:46;;;;;;;13.50;7.00;;;3.50;99.90;;;;;;5048096;28;20453;-69
2021/04/13 06:06:15;;;;;;;14.20;7.70;;;3.60;99.90;;;;;;5048100;28;20454;-70
2021/04/13 06:08:42;;;;;;;12.57;6.73;;;3.60;99.90;;;;;;5056762;28;20529;-70
2021/04/13 06:11:09;;;;;;;14.83;7.57;;;3.70;99.90;;;;;;5032139;28;20458;-70
2021/04/13 06:13:35;;;;;;;9.97;6.00;;;3.70;99.90;;;;;;5031223;28;20469;-69
2021/04/13 06:16:04;;;;;;;14.97;7.00;;;3.70;99.90;;;;;;5032075;28;20529;-69
2021/04/13 06:18:30;;;;;;;11.53;6.43;;;3.70;99.90;;;;;;5032150;28;20222;-69
2021/04/13 06:20:55;;;;;;;14.27;6.97;;;3.70;99.90;;;;;;5015950;28;20540;-68
2021/04/13 06:23:21;;;;;;;16.00;8.07;;;3.80;99.90;;;;;;5015240;28;20212;-69
2021/04/13 06:25:47;;;;;;;13.80;7.50;;;3.80;99.90;;;;;;5015703;28;20224;-69
2021/04/13 06:28:12;;;;;;;13.77;7.20;;;3.80;99.90;;;;;;5015333;28;20223;-70
2021/04/13 06:30:41;;;;;;;15.73;6.97;;;3.80;99.90;;;;;;5048622;28;20215;-70
2021/04/13 06:33:07;;;;;;;14.90;7.27;;;3.90;99.90;;;;;;5022904;28;20250;-70
2021/04/13 06:35:32;;;;;;;13.60;8.00;;;3.90;99.90;;;;;;5048537;28;20823;-69
2021/04/13 06:38:01;;;;;;;13.77;7.23;;;3.90;99.90;;;;;;5039433;28;20459;-70
2021/04/13 06:40:32;;;;;;;16.93;10.27;;;4.00;99.90;;;;;;5031809;28;20265;-70
2021/04/13 06:43:15;;;;;;;14.77;7.90;;;4.00;99.90;;;;;;5032113;28;20825;-69
2021/04/13 06:46:17;;;;;;;14.93;8.17;;;4.00;99.90;;;;;;5047985;28;20458;-70
2021/04/13 06:49:04;;;;;;;12.50;7.80;;;4.00;99.90;;;;;;5047563;28;20450;-70
2021/04/13 06:51:48;;;;;;;10.90;5.80;;;4.10;99.90;;;;;;5047647;28;20457;-68
2021/04/13 06:54:30;;;;;;;12.43;7.43;;;4.10;99.90;;;;;;5048151;28;20462;-70
2021/04/13 06:57:21;;;;;;;15.60;7.60;;;4.20;99.90;;;;;;5052262;28;20477;-70
2021/04/13 07:00:03;;;;;;;11.70;5.93;;;4.20;99.90;;;;;;5008714;28;20451;-69
2021/04/13 07:02:50;;;;;;;16.80;6.93;;;4.20;99.90;;;;;;5032305;28;21603;-69
2021/04/13 07:05:21;;;;;;;13.77;7.70;;;4.30;99.90;;;;;;5048178;28;20521;-70
2021/04/13 07:08:23;;;;;;;13.43;8.67;;;4.40;99.90;;;;;;5035149;28;20475;-70
2021/04/13 07:10:56;;;;;;;10.70;6.70;;;4.40;99.90;;;;;;5019868;28;20864;-69
2021/04/13 07:13:41;;;;;;;11.53;6.33;;;4.40;99.90;;;;;;5051630;28;20442;-70
2021/04/13 07:16:18;;;;;;;11.50;5.93;;;4.40;99.90;;;;;;5052086;28;20533;-70
2021/04/13 07:19:10;;;;;;;9.90;5.90;;;4.50;99.90;;;;;;5051705;28;20445;-71
2021/04/13 07:22:01;;;;;;;6.67;4.13;;;4.50;99.90;;;;;;5051223;28;20454;-70
2021/04/13 07:24:29;;;;;;;7.77;3.67;;;4.60;99.90;;;;;;5051585;28;20477;-69
2021/04/13 07:27:27;;;;;;;14.70;5.90;;;4.60;99.90;;;;;;5011462;28;20463;-70
2021/04/13 07:30:25;;;;;;;9.70;5.20;;;4.70;99.90;;;;;;5030658;28;20470;-68
2021/04/13 07:32:56;;;;;;;10.03;4.30;;;4.80;99.90;;;;;;5026276;28;20481;-70
2021/04/13 07:35:23;;;;;;;9.60;6.07;;;4.80;99.90;;;;;;5034629;28;20447;-69
2021/04/13 07:37:51;;;;;;;10.77;5.57;;;4.80;99.90;;;;;;5050701;28;20981;-70
2021/04/13 07:40:23;;;;;;;13.83;8.20;;;4.90;99.90;;;;;;5063553;28;20540;-69
2021/04/13 07:43:20;;;;;;;13.23;7.90;;;4.90;99.90;;;;;;5067954;28;20465;-70
2021/04/13 07:46:04;;;;;;;9.40;4.40;;;4.90;99.90;;;;;;5034100;28;20451;-69
2021/04/13 07:48:42;;;;;;;12.17;5.00;;;4.90;99.90;;;;;;5050102;28;20895;-70
2021/04/13 07:51:26;;;;;;;10.00;5.23;;;5.00;99.90;;;;;;5050778;28;20465;-69
2021/04/13 07:54:13;;;;;;;5.27;3.83;;;5.00;99.90;;;;;;5049094;28;21041;-70
2021/04/13 07:56:48;;;;;;;4.60;3.23;;;5.10;99.90;;;;;;5042774;28;20480;-70
2021/04/13 07:59:32;;;;;;;8.50;4.37;;;5.10;99.90;;;;;;5033056;28;20870;-69
2021/04/13 08:01:58;;;;;;;4.50;2.77;;;5.20;99.90;;;;;;5038329;28;20446;-69
2021/04/13 08:04:28;;;;;;;5.33;2.93;;;5.20;99.90;;;;;;5050554;28;20461;-68
2021/04/13 08:07:04;;;;;;;8.50;3.67;;;5.30;99.90;;;;;;5033721;28;20304;-69
2021/04/13 08:09:41;;;;;;;9.00;5.00;;;5.30;99.90;;;;;;5031011;28;20489;-69
2021/04/13 08:12:10;;;;;;;9.30;4.00;;;5.40;99.90;;;;;;5033921;28;20464;-69
2021/04/13 08:15:04;;;;;;;6.47;4.00;;;5.40;99.90;;;;;;5050494;28;20446;-69
2021/04/13 08:17:53;;;;;;;6.00;4.10;;;5.50;99.90;;;;;;5051922;28;20470;-70
2021/04/13 08:20:28;;;;;;;5.67;3.20;;;5.70;99.90;;;;;;5049313;28;20453;-69
2021/04/13 08:23:16;;;;;;;4.33;3.57;;;5.90;99.90;;;;;;5030867;28;20463;-69
2021/04/13 08:25:48;;;;;;;5.43;2.97;;;5.90;99.90;;;;;;5047871;28;20958;-69
2021/04/13 08:28:28;;;;;;;7.00;3.60;;;6.00;99.90;;;;;;5050049;28;20466;-68
2021/04/13 08:34:03;;;;;;;6.37;3.30;;;6.00;99.90;;;;;;5057643;28;20463;-68
2021/04/13 08:36:46;;;;;;;5.10;3.47;;;6.00;99.90;;;;;;5033455;28;20823;-69
2021/04/13 08:39:41;;;;;;;6.90;3.70;;;6.10;99.90;;;;;;5018793;28;20825;-68
2021/04/13 08:42:08;;;;;;;5.67;2.53;;;6.20;99.90;;;;;;5049270;28;20504;-69
2021/04/13 08:44:47;;;;;;;6.13;3.20;;;6.20;99.70;;;;;;5016745;28;20545;-69
2021/04/13 08:47:23;;;;;;;3.30;2.40;;;6.20;99.90;;;;;;5017313;28;20809;-69
2021/04/13 08:49:57;;;;;;;4.50;2.97;;;6.30;99.60;;;;;;5048698;28;20458;-69
2021/04/13 08:52:23;;;;;;;3.53;2.53;;;6.40;99.90;;;;;;5016363;28;20468;-69
2021/04/13 08:54:59;;;;;;;4.57;2.80;;;6.40;99.50;;;;;;5030313;28;20458;-69
2021/04/13 08:57:33;;;;;;;3.67;2.40;;;6.50;99.90;;;;;;5049410;28;20279;-68
2021/04/13 09:00:03;;;;;;;5.70;3.10;;;6.60;99.90;;;;;;5033227;28;20459;-68
2021/04/13 09:02:35;;;;;;;3.40;2.43;;;6.60;99.60;;;;;;5033096;28;20446;-70
2021/04/13 09:05:19;;;;;;;3.47;1.70;;;6.70;99.90;;;;;;5027331;28;20904;-68
2021/04/13 09:07:49;;;;;;;4.70;3.00;;;6.90;99.70;;;;;;5032688;28;20458;-68
2021/04/13 09:10:35;;;;;;;2.27;1.87;;;6.90;99.30;;;;;;5028632;28;21091;-69
2021/04/13 09:13:23;;;;;;;2.63;2.40;;;7.00;99.60;;;;;;5026802;28;20447;-69
2021/04/13 09:16:08;;;;;;;2.03;1.40;;;7.00;99.10;;;;;;5049293;28;20454;-69
2021/04/13 09:18:46;;;;;;;2.83;1.93;;;7.00;98.40;;;;;;5047746;28;20455;-69
2021/04/13 09:21:20;;;;;;;4.80;3.33;;;7.00;98.60;;;;;;5049274;28;20452;-69
2021/04/13 09:23:58;;;;;;;5.27;2.43;;;7.00;98.40;;;;;;5048995;28;20520;-69
2021/04/13 09:26:44;;;;;;;8.80;5.27;;;7.10;98.30;;;;;;5049209;28;20526;-71
2021/04/13 09:29:46;;;;;;;5.60;3.50;;;7.00;98.40;;;;;;5048576;28;20452;-71
2021/04/13 09:32:25;;;;;;;4.47;2.90;;;7.00;98.10;;;;;;5012962;28;20453;-71
2021/04/13 09:35:02;;;;;;;3.13;2.17;;;7.10;97.60;;;;;;5032899;28;20487;-71
2021/04/13 09:37:40;;;;;;;8.90;2.40;;;7.10;97.50;;;;;;5031233;28;20533;-68
2021/04/13 09:40:24;;;;;;;5.27;3.23;;;7.20;97.60;;;;;;5046142;28;20458;-71
2021/04/13 09:43:20;;;;;;;3.43;2.43;;;7.20;97.40;;;;;;5016157;28;20457;-71
2021/04/13 09:46:07;;;;;;;4.57;2.60;;;7.10;96.90;;;;;;5047931;28;20458;-69
2021/04/13 09:48:52;;;;;;;2.50;1.97;;;7.00;97.10;;;;;;5046430;28;20488;-69
2021/04/13 09:51:44;;;;;;;2.53;1.70;;;7.20;97.50;;;;;;5047818;28;20455;-69
2021/04/13 09:54:33;;;;;;;2.63;2.13;;;7.20;96.60;;;;;;5047412;28;20852;-69
2021/04/13 09:57:34;;;;;;;5.03;2.63;;;7.10;96.40;;;;;;5031519;28;20466;-69
2021/04/13 10:00:15;;;;;;;4.37;2.40;;;7.10;96.60;;;;;;5046424;28;20508;-69
2021/04/13 10:02:59;;;;;;;3.43;2.40;;;7.20;97.00;;;;;;5048766;28;20526;-69
2021/04/13 10:05:30;;;;;;;7.47;3.83;;;7.30;96.90;;;;;;5049108;28;20458;-69
2021/04/13 10:08:12;;;;;;;5.70;3.07;;;7.10;95.70;;;;;;5047297;28;20528;-68
2021/04/13 10:10:50;;;;;;;5.50;3.13;;;7.20;96.70;;;;;;5055751;28;21035;-69
2021/04/13 10:13:40;;;;;;;3.43;2.30;;;7.30;97.00;;;;;;5042322;28;20465;-69
2021/04/13 10:16:27;;;;;;;3.50;1.90;;;7.40;96.40;;;;;;5022193;28;20446;-68
2021/04/13 10:19:35;;;;;;;1.87;1.67;;;7.50;96.40;;;;;;5028778;28;20538;-68
2021/04/13 10:22:40;;;;;;;1.30;1.07;;;7.50;96.10;;;;;;5046228;28;20465;-69
2021/04/13 10:25:25;;;;;;;1.70;1.60;;;7.60;96.20;;;;;;5022026;28;20458;-68
2021/04/13 10:28:28;;;;;;;5.97;2.43;;;7.40;94.70;;;;;;5038216;28;20530;-68
2021/04/13 10:31:06;;;;;;;2.20;1.67;;;7.30;95.00;;;;;;5043006;28;20445;-71
2021/04/13 10:34:02;;;;;;;1.57;1.47;;;7.30;95.10;;;;;;5039101;28;20465;-70
2021/04/13 10:37:13;;;;;;;2.47;1.77;;;7.40;95.90;;;;;;5009450;28;20467;-71
2021/04/13 10:39:55;;;;;;;4.30;1.37;;;7.50;95.20;;;;;;4930478;28;20459;-71
2021/04/13 10:43:01;;;;;;;6.73;2.30;;;7.60;95.80;;;;;;5023467;28;20920;-71
2021/04/13 10:46:01;;;;;;;2.23;2.03;;;7.70;95.90;;;;;;5043769;28;20447;-71
2021/04/13 10:49:04;;;;;;;3.33;2.00;;;7.70;95.20;;;;;;5030853;28;20458;-71
2021/04/13 10:52:08;;;;;;;4.53;1.63;;;7.70;94.50;;;;;;5046996;28;20528;-71
2021/04/13 10:55:06;;;;;;;5.60;2.17;;;7.60;94.40;;;;;;5019873;28;20446;-71
2021/04/13 10:58:01;;;;;;;2.50;2.30;;;7.60;95.40;;;;;;5046032;28;20557;-72
2021/04/13 11:01:15;;;;;;;3.03;2.27;;;7.70;95.40;;;;;;5046439;28;20540;-71
2021/04/13 11:04:11;;;;;;;1.70;1.60;;;7.70;95.50;;;;;;5009466;28;20519;-70
2021/04/13 11:06:43;;;;;;;2.97;1.73;;;7.70;95.10;;;;;;5054038;28;20454;-71
2021/04/13 11:09:49;;;;;;;2.20;1.43;;;7.80;95.50;;;;;;5029992;28;20454;-70
2021/04/13 11:12:33;;;;;;;2.50;2.20;;;7.70;94.60;;;;;;5042195;28;20549;-71
2021/04/13 11:15:34;;;;;;;1.80;1.70;;;7.60;94.80;;;;;;5046597;28;20464;-71
2021/04/13 11:18:30;;;;;;;1.53;1.40;;;7.70;95.00;;;;;;5049497;28;20459;-71
2021/04/13 11:21:13;;;;;;;3.80;3.43;;;7.70;94.80;;;;;;4996568;28;20545;-71
2021/04/13 11:24:00;;;;;;;6.07;2.47;;;7.70;94.90;;;;;;5048629;28;20465;-71
2021/04/13 11:26:53;;;;;;;5.60;4.10;;;7.80;94.90;;;;;;5028355;28;20484;-71
2021/04/13 11:29:43;;;;;;;5.23;3.30;;;8.00;95.50;;;;;;5029172;28;20454;-71
2021/04/13 11:32:23;;;;;;;3.87;2.33;;;8.00;95.30;;;;;;5036573;28;20487;-71
2021/04/13 11:34:56;;;;;;;1.30;1.20;;;8.20;95.30;;;;;;5033827;28;20467;-70
2021/04/13 11:37:40;;;;;;;1.70;1.60;;;8.30;94.70;;;;;;5039686;28;20501;-70
2021/04/13 11:40:27;;;;;;;2.00;1.50;;;8.40;95.20;;;;;;5028874;28;20446;-70
2021/04/13 11:42:57;;;;;;;3.20;2.27;;;8.50;94.80;;;;;;5053928;28;20985;-70
2021/04/13 11:45:51;;;;;;;3.70;2.73;;;8.50;94.60;;;;;;5038207;28;20546;-71
2021/04/13 11:48:35;;;;;;;2.73;2.00;;;8.60;94.40;;;;;;5046193;28;20457;-71
2021/04/13 11:51:14;;;;;;;4.27;2.47;;;8.60;94.30;;;;;;5051276;28;20985;-71
2021/04/13 11:53:46;;;;;;;3.60;2.43;;;8.60;94.20;;;;;;5050878;28;20477;-70
2021/04/13 11:56:21;;;;;;;2.87;1.67;;;8.70;93.50;;;;;;5012812;28;20990;-70
2021/04/13 11:59:22;;;;;;;0.90;0.63;;;8.60;93.70;;;;;;5027465;28;20457;-71
2021/04/13 12:01:50;;;;;;;1.43;1.30;;;8.70;92.90;;;;;;5026110;28;20458;-71
2021/04/13 12:04:22;;;;;;;4.63;2.30;;;8.70;92.90;;;;;;5029298;28;20519;-71
2021/04/13 12:07:01;;;;;;;4.23;2.53;;;8.60;93.10;;;;;;5039940;28;20473;-71
2021/04/13 12:09:46;;;;;;;5.70;3.97;;;8.50;92.90;;;;;;5032692;28;21339;-70
2021/04/13 12:12:30;;;;;;;2.53;2.03;;;8.50;93.00;;;;;;5048998;28;20503;-71
2021/04/13 12:14:57;;;;;;;4.70;2.87;;;8.50;92.80;;;;;;5033950;28;20462;-71
2021/04/13 12:17:45;;;;;;;7.50;3.23;;;8.50;93.00;;;;;;5049491;28;20883;-72
2021/04/13 12:20:20;;;;;;;3.63;2.20;;;8.50;93.20;;;;;;5041726;28;20447;-71
2021/04/13 12:22:46;;;;;;;3.63;2.13;;;8.50;93.00;;;;;;5050322;28;20442;-70
2021/04/13 12:25:34;;;;;;;2.73;1.90;;;8.60;93.90;;;;;;5040896;28;20533;-71
2021/04/13 12:28:07;;;;;;;3.40;1.23;;;8.70;93.90;;;;;;5022380;28;20446;-72
2021/04/13 12:30:56;;;;;;;3.37;2.03;;;8.70;93.40;;;;;;5049760;28;20442;-71
2021/04/13 12:33:24;;;;;;;2.90;1.50;;;8.70;93.50;;;;;;5059353;28;20454;-70
2021/04/13 12:35:56;;;;;;;5.00;1.63;;;8.70;94.00;;;;;;5044674;28;20493;-70
2021/04/13 12:38:43;;;;;;;1.00;0.83;;;8.80;93.60;;;;;;5025611;28;20908;-70
2021/04/13 12:41:29;;;;;;;1.90;1.13;;;8.90;93.80;;;;;;5049009;28;20508;-71
2021/04/13 12:43:59;;;;;;;1.70;1.50;;;8.90;93.30;;;;;;5023705;28;20846;-71
2021/04/13 12:46:31;;;;;;;1.33;1.23;;;8.90;93.20;;;;;;5025417;28;20439;-71
2021/04/13 12:48:59;;;;;;;4.40;1.37;;;9.00;93.60;;;;;;5046421;28;20459;-71
2021/04/13 12:51:30;;;;;;;2.67;1.97;;;9.00;93.40;;;;;;5049371;28;20474;-71
2021/04/13 12:54:30;;;;;;;2.77;1.63;;;9.00;93.50;;;;;;5049167;28;20470;-70
2021/04/13 12:57:19;;;;;;;7.13;3.17;;;9.20;93.80;;;;;;5048955;28;20625;-71
2021/04/13 13:00:04;;;;;;;5.47;4.30;;;9.20;92.90;;;;;;5050158;28;20875;-70
2021/04/13 13:02:33;;;;;;;7.23;2.70;;;9.30;93.60;;;;;;5049389;28;20438;-71
2021/04/13 13:05:00;;;;;;;1.03;0.93;;;9.40;93.40;;;;;;5061032;28;20453;-71
2021/04/13 13:07:29;;;;;;;1.80;1.30;;;9.50;93.50;;;;;;5032760;28;20443;-71
2021/04/13 13:09:55;;;;;;;2.13;1.17;;;9.50;93.70;;;;;;5032861;28;20522;-70
2021/04/13 13:12:36;;;;;;;1.50;1.40;;;9.50;93.00;;;;;;5047603;28;20466;-70
2021/04/13 13:15:02;;;;;;;2.23;1.40;;;9.60;93.60;;;;;;5015541;28;20454;-70
2021/04/13 13:17:31;;;;;;;6.20;3.77;;;9.60;93.40;;;;;;5047684;28;20842;-70
2021/04/13 13:19:58;;;;;;;4.90;4.20;;;9.70;93.10;;;;;;5032276;28;20285;-71
2021/04/13 13:22:27;;;;;;;3.77;3.20;;;9.80;93.60;;;;;;5031272;28;21119;-71
2021/04/13 13:24:54;;;;;;;2.93;2.40;;;10.00;93.10;;;;;;5032410;28;21042;-70
2021/04/13 13:27:32;;;;;;;1.87;1.77;;;10.10;92.60;;;;;;5031337;28;20462;-71
2021/04/13 13:30:06;;;;;;;1.83;1.20;;;10.10;93.00;;;;;;5030066;28;20462;-71
2021/04/13 13:32:34;;;;;;;1.50;1.40;;;10.00;91.50;;;;;;5030556;28;20486;-72
2021/04/13 13:35:02;;;;;;;1.53;1.40;;;10.00;91.40;;;;;;5039071;28;20477;-71
2021/04/13 13:37:35;;;;;;;1.90;1.60;;;9.80;92.30;;;;;;5028254;28;20479;-71
2021/04/13 13:40:04;;;;;;;2.87;1.30;;;9.90;93.40;;;;;;5032326;28;20454;-71
2021/04/13 13:42:31;;;;;;;1.13;0.93;;;10.00;92.40;;;;;;5030879;28;20461;-70
2021/04/13 13:44:58;;;;;;;2.80;0.93;;;9.90;91.80;;;;;;5031854;28;20458;-71
2021/04/13 13:47:30;;;;;;;1.80;1.60;;;9.70;91.60;;;;;;5047573;28;20515;-71